createdAt,value
2022-09-28T00:00:42.637Z,99534.66
2022-09-28T00:03:09.525Z,99542.34
2022-09-28T00:05:35.911Z,99547.34
2022-09-28T00:08:02.474Z,99543.19
2022-09-28T00:10:28.831Z,99542.28
2022-09-28T00:12:55.544Z,99543.88
2022-09-28T00:15:22.504Z,99536.25
2022-09-28T00:17:49.021Z,99538.88
2022-09-28T00:20:17.236Z,99540.63
2022-09-28T00:22:43.601Z,99536.97
2022-09-28T00:25:09.930Z,99537.97
2022-09-28T00:27:36.695Z,99531.75
2022-09-28T00:30:03.881Z,99530.19
2022-09-28T00:32:30.259Z,99531.03
2022-09-28T00:34:56.628Z,99536.94
2022-09-28T00:37:23.187Z,99530.84
2022-09-28T00:39:49.568Z,99528.53
2022-09-28T00:42:24.676Z,99529.16
2022-09-28T00:44:53.087Z,99527.44
2022-09-28T00:47:40.208Z,99534.38
2022-09-28T00:50:21.194Z,99515.53
2022-09-28T00:52:53.180Z,99517.31
2022-09-28T00:55:26.779Z,99515.56
2022-09-28T00:57:58.399Z,99512.06
2022-09-28T01:00:24.860Z,99516.31
2022-09-28T01:02:51.421Z,99515.16
2022-09-28T01:05:18.857Z,99515.13
2022-09-28T01:07:46.914Z,99513.66
2022-09-28T01:10:14.476Z,99515.06
2022-09-28T01:12:40.824Z,99510.59
2022-09-28T01:15:07.528Z,99509.00
2022-09-28T01:17:59.771Z,99503.84
2022-09-28T01:20:29.100Z,99501.25
2022-09-28T01:23:21.147Z,99499.84
2022-09-28T01:26:25.344Z,99507.59
2022-09-28T01:29:02.426Z,99510.22
2022-09-28T01:31:33.455Z,99509.25
2022-09-28T01:34:16.400Z,99500.81
2022-09-28T01:36:48.735Z,99503.22
2022-09-28T01:39:20.000Z,99499.84
2022-09-28T01:41:50.057Z,99497.13
2022-09-28T01:44:20.255Z,99500.59
2022-09-28T01:46:49.908Z,99498.09
2022-09-28T01:49:21.322Z,99498.16
2022-09-28T01:52:00.226Z,99497.31
2022-09-28T01:54:33.109Z,99486.13
2022-09-28T01:57:13.471Z,99487.94
2022-09-28T01:59:47.449Z,99487.81
2022-09-28T02:02:19.065Z,99491.31
2022-09-28T02:04:50.895Z,99477.66
2022-09-28T02:07:59.581Z,99488.84
2022-09-28T02:10:34.407Z,99473.31
2022-09-28T02:13:34.591Z,99469.94
2022-09-28T02:16:07.504Z,99472.50
2022-09-28T02:18:34.213Z,99468.22
2022-09-28T02:21:12.961Z,99465.56
2022-09-28T02:23:45.666Z,99469.00
2022-09-28T02:26:19.462Z,99472.25
2022-09-28T02:28:46.077Z,99469.09
2022-09-28T02:31:12.415Z,99472.25
2022-09-28T02:33:43.873Z,99473.00
2022-09-28T02:36:11.271Z,99477.19
2022-09-28T02:38:38.541Z,99480.66
2022-09-28T02:41:32.764Z,99476.28
2022-09-28T02:44:20.903Z,99482.00
2022-09-28T02:46:57.999Z,99480.41
2022-09-28T02:49:54.481Z,99477.09
2022-09-28T02:52:29.800Z,99475.47
2022-09-28T02:55:21.048Z,99483.97
2022-09-28T02:58:14.868Z,99476.63
2022-09-28T03:00:55.651Z,99482.63
2022-09-28T03:03:38.909Z,99478.28
2022-09-28T03:06:15.564Z,99473.13
2022-09-28T03:08:51.594Z,99471.47
2022-09-28T03:11:22.345Z,99472.25
2022-09-28T03:13:50.221Z,99477.31
2022-09-28T03:16:19.247Z,99475.56
2022-09-28T03:18:46.597Z,99473.09
2022-09-28T03:21:14.560Z,99469.50
2022-09-28T03:23:41.992Z,99466.16
2022-09-28T03:26:10.732Z,99468.72
2022-09-28T03:28:37.437Z,99463.50
2022-09-28T03:31:03.801Z,99465.09
2022-09-28T03:33:30.292Z,99471.06
2022-09-28T03:35:56.639Z,99471.97
2022-09-28T03:38:23.174Z,99470.34
2022-09-28T03:40:57.284Z,99476.97
2022-09-28T03:43:25.075Z,99471.72
2022-09-28T03:46:00.182Z,99464.25
2022-09-28T03:48:32.407Z,99461.75
2022-09-28T03:51:01.577Z,99461.72
2022-09-28T03:53:29.899Z,99455.81
2022-09-28T03:56:01.551Z,99454.88
2022-09-28T03:58:27.939Z,99455.81
2022-09-28T04:00:54.293Z,99449.09
2022-09-28T04:03:20.825Z,99454.19
2022-09-28T04:05:52.000Z,99453.44
2022-09-28T04:08:19.271Z,99450.09
2022-09-28T04:10:46.355Z,99447.56
2022-09-28T04:13:13.337Z,99446.63
2022-09-28T04:15:39.792Z,99446.63
2022-09-28T04:18:13.936Z,99448.41
2022-09-28T04:20:41.466Z,99447.38
2022-09-28T04:23:07.883Z,99456.75
2022-09-28T04:25:34.210Z,99453.09
2022-09-28T04:28:19.608Z,99455.63
2022-09-28T04:30:47.647Z,99453.91
2022-09-28T04:33:14.147Z,99456.63
2022-09-28T04:35:40.702Z,99465.91
2022-09-28T04:38:07.236Z,99466.06
2022-09-28T04:40:33.570Z,99465.84
2022-09-28T04:42:59.942Z,99465.00
2022-09-28T04:45:26.842Z,99466.75
2022-09-28T04:47:53.407Z,99460.78
2022-09-28T04:50:19.723Z,99457.41
2022-09-28T04:52:46.378Z,99463.22
2022-09-28T04:55:14.341Z,99468.50
2022-09-28T04:57:41.130Z,99470.13
2022-09-28T05:00:08.860Z,99468.31
2022-09-28T05:02:35.422Z,99459.00
2022-09-28T05:05:01.919Z,99456.59
2022-09-28T05:07:29.344Z,99460.88
2022-09-28T05:09:55.880Z,99459.88
2022-09-28T05:12:22.267Z,99456.63
2022-09-28T05:14:48.595Z,99464.97
2022-09-28T05:17:15.135Z,99468.50
2022-09-28T05:19:41.466Z,99462.59
2022-09-28T05:22:11.521Z,99454.19
2022-09-28T05:24:37.854Z,99458.59
2022-09-28T05:27:04.617Z,99461.72
2022-09-28T05:29:32.410Z,99462.75
2022-09-28T05:32:01.534Z,99467.88
2022-09-28T05:34:28.645Z,99466.06
2022-09-28T05:36:55.036Z,99463.50
2022-09-28T05:39:21.412Z,99459.31
2022-09-28T05:41:47.757Z,99455.78
2022-09-28T05:44:14.342Z,99443.84
2022-09-28T05:46:40.664Z,99444.69
2022-09-28T05:49:07.028Z,99451.38
2022-09-28T05:51:33.351Z,99455.72
2022-09-28T05:54:05.469Z,99454.81
2022-09-28T05:56:32.187Z,99457.13
2022-09-28T05:58:58.751Z,99459.03
2022-09-28T06:01:25.281Z,99465.00
2022-09-28T06:03:51.818Z,99458.31
2022-09-28T06:06:18.152Z,99454.09
2022-09-28T06:08:46.447Z,99449.00
2022-09-28T06:11:12.803Z,99455.81
2022-09-28T06:13:40.114Z,99456.81
2022-09-28T06:16:08.032Z,99457.66
2022-09-28T06:18:34.675Z,99457.72
2022-09-28T06:21:01.878Z,99462.75
2022-09-28T06:23:28.296Z,99468.63
2022-09-28T06:25:54.674Z,99465.28
2022-09-28T06:28:21.196Z,99475.28
2022-09-28T06:30:48.165Z,99482.16
2022-09-28T06:33:15.247Z,99480.66
2022-09-28T06:35:42.266Z,99486.78
2022-09-28T06:38:09.215Z,99486.63
2022-09-28T06:40:36.223Z,99489.19
2022-09-28T06:43:20.946Z,99488.94
2022-09-28T06:45:52.198Z,99494.09
2022-09-28T06:48:19.016Z,99494.22
2022-09-28T06:50:46.220Z,99503.66
2022-09-28T06:53:14.896Z,99504.63
2022-09-28T06:55:43.435Z,99503.88
2022-09-28T06:58:11.853Z,99507.50
2022-09-28T07:00:39.146Z,99507.50
2022-09-28T07:03:10.484Z,99509.25
2022-09-28T07:05:41.634Z,99508.31
2022-09-28T07:08:08.015Z,99514.13
2022-09-28T07:10:34.352Z,99513.34
2022-09-28T07:13:05.417Z,99510.66
2022-09-28T07:15:32.407Z,99511.66
2022-09-28T07:18:03.222Z,99518.16
2022-09-28T07:20:30.886Z,99519.16
2022-09-28T07:23:15.054Z,99513.28
2022-09-28T07:25:47.761Z,99516.97
2022-09-28T07:28:14.348Z,99528.78
2022-09-28T07:30:42.211Z,99517.34
2022-09-28T07:33:10.850Z,99513.56
2022-09-28T07:35:37.165Z,99525.13
2022-09-28T07:38:08.359Z,99524.38
2022-09-28T07:40:54.652Z,99526.22
2022-09-28T07:43:21.952Z,99525.44
2022-09-28T07:45:50.195Z,99521.16
2022-09-28T07:48:18.658Z,99522.28
2022-09-28T07:50:52.420Z,99523.97
2022-09-28T07:53:20.145Z,99520.56
2022-09-28T07:55:55.238Z,99522.97
2022-09-28T07:58:22.595Z,99534.31
2022-09-28T08:00:50.230Z,99533.53
2022-09-28T08:03:18.580Z,99548.00
2022-09-28T08:05:47.366Z,99546.34
2022-09-28T08:08:14.965Z,99546.38
2022-09-28T08:10:47.146Z,99549.03
2022-09-28T08:13:15.064Z,99544.63
2022-09-28T08:15:42.413Z,99547.06
2022-09-28T08:18:09.079Z,99549.69
2022-09-28T08:20:54.247Z,99548.22
2022-09-28T08:23:20.631Z,99556.09
2022-09-28T08:25:51.863Z,99561.91
2022-09-28T08:28:18.304Z,99561.84
2022-09-28T08:30:46.185Z,99559.41
2022-09-28T08:33:13.818Z,99568.03
2022-09-28T08:35:43.515Z,99563.00
2022-09-28T08:38:10.874Z,99566.44
2022-09-28T08:40:54.768Z,99575.72
2022-09-28T08:43:40.264Z,99573.09
2022-09-28T08:46:09.969Z,99575.66
2022-09-28T08:48:52.211Z,99578.50
2022-09-28T08:51:38.996Z,99583.41
2022-09-28T08:54:26.797Z,99577.44
2022-09-28T08:57:03.491Z,99576.75
2022-09-28T08:59:42.164Z,99581.06
2022-09-28T09:02:16.221Z,99581.66
2022-09-28T09:04:42.864Z,99585.25
2022-09-28T09:07:33.596Z,99582.75
2022-09-28T09:10:37.407Z,99591.47
2022-09-28T09:13:32.135Z,99592.38
2022-09-28T09:16:16.917Z,99599.84
2022-09-28T09:18:52.457Z,99593.16
2022-09-28T09:21:41.618Z,99594.97
2022-09-28T09:24:28.084Z,99590.69
2022-09-28T09:27:20.824Z,99591.56
2022-09-28T09:30:04.141Z,99591.56
2022-09-28T09:33:27.067Z,99595.81
2022-09-28T09:36:32.154Z,99600.31
2022-09-28T09:39:17.099Z,99605.31
2022-09-28T09:41:46.752Z,99607.19
2022-09-28T09:44:44.721Z,99607.03
2022-09-28T09:47:24.849Z,99602.69
2022-09-28T09:49:55.517Z,99607.84
2022-09-28T09:52:27.734Z,99607.72
2022-09-28T09:55:03.459Z,99605.34
2022-09-28T09:57:40.469Z,99611.47
2022-09-28T10:00:14.884Z,99613.19
2022-09-28T10:02:44.937Z,99607.25
2022-09-28T10:05:11.239Z,99612.19
2022-09-28T10:07:53.695Z,99613.97
2022-09-28T10:10:25.186Z,99614.13
2022-09-28T10:12:52.572Z,99611.63
2022-09-28T10:15:24.395Z,99616.78
2022-09-28T10:17:51.384Z,99615.06
2022-09-28T10:20:18.891Z,99615.94
2022-09-28T10:22:46.298Z,99616.78
2022-09-28T10:25:13.652Z,99610.78
2022-09-28T10:27:46.572Z,99621.06
2022-09-28T10:30:18.169Z,99615.94
2022-09-28T10:32:47.249Z,99614.22
2022-09-28T10:35:19.367Z,99612.47
2022-09-28T10:37:59.665Z,99619.38
2022-09-28T10:40:50.290Z,99618.47
2022-09-28T10:43:21.801Z,99620.97
2022-09-28T10:45:49.611Z,99627.88
2022-09-28T10:48:20.452Z,99631.44
2022-09-28T10:51:03.167Z,99626.28
2022-09-28T10:53:29.628Z,99621.06
2022-09-28T10:56:01.887Z,99619.38
2022-09-28T10:58:41.994Z,99622.84
2022-09-28T11:01:18.977Z,99609.88
2022-09-28T11:03:52.052Z,99613.25
2022-09-28T11:06:27.630Z,99614.84
2022-09-28T11:08:57.498Z,99613.06
2022-09-28T11:11:24.700Z,99607.06
2022-09-28T11:13:53.743Z,99610.44
2022-09-28T11:16:40.334Z,99604.91
2022-09-28T11:19:29.439Z,99599.66
2022-09-28T11:21:55.793Z,99609.03
2022-09-28T11:24:25.319Z,99607.53
2022-09-28T11:27:00.210Z,99609.50
2022-09-28T11:29:37.018Z,99603.78
2022-09-28T11:32:05.885Z,99613.09
2022-09-28T11:34:57.887Z,99608.69
2022-09-28T11:37:56.745Z,99608.53
2022-09-28T11:40:43.942Z,99599.78
2022-09-28T11:43:44.081Z,99606.59
2022-09-28T11:46:31.878Z,99613.88
2022-09-28T11:49:04.956Z,99618.50
2022-09-28T11:51:34.550Z,99612.66
2022-09-28T11:54:28.850Z,99618.72
2022-09-28T11:57:01.534Z,99616.81
2022-09-28T11:59:34.195Z,99618.72
2022-09-28T12:02:16.479Z,99619.81
2022-09-28T12:05:15.939Z,99618.28
2022-09-28T12:07:47.396Z,99611.59
2022-09-28T12:10:29.740Z,99620.72
2022-09-28T12:13:22.538Z,99606.75
2022-09-28T12:16:38.757Z,99611.34
2022-09-28T12:18:57.784Z,99613.47
2022-09-28T12:21:34.677Z,99613.28
2022-09-28T12:24:17.559Z,99613.25
2022-09-28T12:27:05.418Z,99614.50
2022-09-28T12:29:47.541Z,99611.81
2022-09-28T12:32:35.716Z,99610.94
2022-09-28T12:35:02.780Z,99613.78
2022-09-28T12:37:53.914Z,99616.69
2022-09-28T12:40:52.225Z,99625.47
2022-09-28T12:43:56.047Z,99623.84
2022-09-28T12:46:53.591Z,99621.28
2022-09-28T12:52:19.270Z,99627.84
2022-09-28T12:55:08.178Z,99629.44
2022-09-28T12:57:40.232Z,99628.81
2022-09-28T13:00:15.823Z,99638.31
2022-09-28T13:03:03.878Z,99631.56
2022-09-28T13:06:05.332Z,99629.19
2022-09-28T13:09:01.541Z,99628.44
2022-09-28T13:11:41.145Z,99627.06
2022-09-28T13:14:53.976Z,99631.53
2022-09-28T13:17:51.627Z,99637.06
2022-09-28T13:20:31.446Z,99637.53
2022-09-28T13:23:22.539Z,99630.16
2022-09-28T13:25:55.680Z,99634.56
2022-09-28T13:28:27.203Z,99633.22
2022-09-28T13:33:39.639Z,99625.00
2022-09-28T13:36:27.695Z,99623.03
2022-09-28T13:41:47.676Z,99622.97
2022-09-28T13:44:14.196Z,99631.16
2022-09-28T13:47:20.936Z,99636.16
2022-09-28T13:50:02.109Z,99622.94
2022-09-28T13:52:39.763Z,99636.47
2022-09-28T13:55:18.467Z,99634.63
2022-09-28T13:57:52.442Z,99636.03
2022-09-28T14:01:00.047Z,99631.66
2022-09-28T14:03:43.213Z,99631.59
2022-09-28T14:06:23.631Z,99642.91
2022-09-28T14:09:08.418Z,99653.03
2022-09-28T14:11:34.919Z,99649.94
2022-09-28T14:14:04.216Z,99651.50
2022-09-28T14:16:32.877Z,99652.88
2022-09-28T14:19:24.314Z,99659.00
2022-09-28T14:22:11.872Z,99649.56
2022-09-28T14:24:58.698Z,99654.84
2022-09-28T14:27:43.814Z,99653.13
2022-09-28T14:30:13.181Z,99654.72
2022-09-28T14:32:43.104Z,99647.06
2022-09-28T14:35:19.157Z,99648.66
2022-09-28T14:38:08.219Z,99649.31
2022-09-28T14:41:10.649Z,99647.25
2022-09-28T14:43:46.509Z,99646.16
2022-09-28T14:46:19.075Z,99648.28
2022-09-28T14:48:53.547Z,99646.50
2022-09-28T14:51:37.788Z,99644.63
2022-09-28T14:54:10.577Z,99657.16
2022-09-28T14:56:45.287Z,99660.31
2022-09-28T14:59:19.279Z,99654.22
2022-09-28T15:02:01.850Z,99661.50
2022-09-28T15:04:30.147Z,99660.84
2022-09-28T15:06:58.034Z,99663.03
2022-09-28T15:09:39.749Z,99654.38
2022-09-28T15:12:18.536Z,99657.91
2022-09-28T15:14:56.204Z,99653.41
2022-09-28T15:17:27.068Z,99654.78
2022-09-28T15:20:07.190Z,99656.59
2022-09-28T15:22:33.742Z,99664.41
2022-09-28T15:25:03.081Z,99661.72
2022-09-28T15:27:37.999Z,99663.50
2022-09-28T15:30:23.077Z,99663.88
2022-09-28T15:32:50.613Z,99660.22
2022-09-28T15:35:26.291Z,99678.59
2022-09-28T15:37:54.861Z,99677.69
2022-09-28T15:40:33.515Z,99681.16
2022-09-28T15:43:00.162Z,99684.72
2022-09-28T15:45:31.995Z,99679.56
2022-09-28T15:48:18.652Z,99677.91
2022-09-28T15:51:00.245Z,99684.81
2022-09-28T15:53:26.828Z,99683.13
2022-09-28T15:56:00.090Z,99678.72
2022-09-28T15:58:27.309Z,99679.38
2022-09-28T16:01:27.170Z,99688.28
2022-09-28T16:03:54.072Z,99687.06
2022-09-28T16:06:20.615Z,99695.81
2022-09-28T16:08:48.836Z,99694.16
2022-09-28T16:11:21.822Z,99689.72
2022-09-28T16:14:01.984Z,99693.25
2022-09-28T16:16:58.249Z,99694.25
2022-09-28T16:19:30.306Z,99693.41
2022-09-28T16:21:58.875Z,99700.31
2022-09-28T16:24:35.307Z,99703.78
2022-09-28T16:27:08.203Z,99706.38
2022-09-28T16:29:40.736Z,99706.38
2022-09-28T16:32:25.498Z,99703.78
2022-09-28T16:35:13.414Z,99702.91
2022-09-28T16:37:42.625Z,99710.66
2022-09-28T16:40:10.610Z,99710.63
2022-09-28T16:42:44.389Z,99718.31
2022-09-28T16:45:19.908Z,99715.72
2022-09-28T16:47:49.203Z,99711.38
2022-09-28T16:50:16.881Z,99717.47
2022-09-28T16:53:01.912Z,99714.91
2022-09-28T16:55:40.114Z,99720.78
2022-09-28T16:58:07.240Z,99714.75
2022-09-28T17:00:33.718Z,99714.72
2022-09-28T17:03:00.181Z,99724.13
2022-09-28T17:05:26.600Z,99722.28
2022-09-28T17:08:01.227Z,99724.84
2022-09-28T17:10:45.135Z,99725.69
2022-09-28T17:13:26.895Z,99725.69
2022-09-28T17:15:53.857Z,99730.75
2022-09-28T17:18:20.701Z,99728.22
2022-09-28T17:20:50.111Z,99728.22
2022-09-28T17:23:17.486Z,99735.84
2022-09-28T17:25:45.205Z,99740.28
2022-09-28T17:28:17.682Z,99740.13
2022-09-28T17:30:44.264Z,99742.66
2022-09-28T17:33:10.629Z,99743.47
2022-09-28T17:35:39.917Z,99747.72
2022-09-28T17:38:06.273Z,99749.47
2022-09-28T17:40:32.857Z,99743.41
2022-09-28T17:42:59.979Z,99749.31
2022-09-28T17:45:28.386Z,99748.53
2022-09-28T17:47:55.859Z,99752.00
2022-09-28T17:50:29.690Z,99749.41
2022-09-28T17:52:57.943Z,99753.69
2022-09-28T17:55:31.638Z,99755.34
2022-09-28T17:57:59.499Z,99758.91
2022-09-28T18:00:27.793Z,99755.28
2022-09-28T18:02:55.440Z,99751.84
2022-09-28T18:05:24.688Z,99761.13
2022-09-28T18:07:52.297Z,99753.47
2022-09-28T18:10:21.475Z,99764.50
2022-09-28T18:12:49.054Z,99764.50
2022-09-28T18:15:16.832Z,99759.19
2022-09-28T18:17:43.849Z,99770.41
2022-09-28T18:20:12.564Z,99774.66
2022-09-28T18:22:39.289Z,99767.63
2022-09-28T18:25:06.913Z,99777.94
2022-09-28T18:27:34.893Z,99778.00
2022-09-28T18:30:02.112Z,99777.06
2022-09-28T18:32:28.685Z,99779.63
2022-09-28T18:34:55.212Z,99778.84
2022-09-28T18:37:21.614Z,99781.28
2022-09-28T18:39:48.036Z,99778.81
2022-09-28T18:42:14.870Z,99787.72
2022-09-28T18:44:41.277Z,99786.81
2022-09-28T18:47:07.667Z,99779.59
2022-09-28T18:49:34.394Z,99790.72
2022-09-28T18:52:01.613Z,99794.94
2022-09-28T18:54:28.035Z,99799.94
2022-09-28T18:56:56.443Z,99803.00
2022-09-28T18:59:23.542Z,99804.31
2022-09-28T19:01:50.391Z,99800.72
2022-09-28T19:04:17.307Z,99806.59
2022-09-28T19:06:44.689Z,99808.38
2022-09-28T19:09:11.587Z,99808.25
2022-09-28T19:11:38.126Z,99814.44
2022-09-28T19:14:04.478Z,99811.00
2022-09-28T19:16:33.642Z,99813.78
2022-09-28T19:19:02.031Z,99815.56
2022-09-28T19:21:29.225Z,99824.78
2022-09-28T19:23:55.897Z,99820.56
2022-09-28T19:26:25.388Z,99821.56
2022-09-28T19:28:51.865Z,99830.94
2022-09-28T19:31:19.180Z,99828.84
2022-09-28T19:33:46.434Z,99834.69
2022-09-28T19:36:18.864Z,99827.84
2022-09-28T19:38:46.159Z,99841.41
2022-09-28T19:41:43.512Z,99834.50
2022-09-28T19:44:25.118Z,99844.03
2022-09-28T19:46:54.462Z,99846.53
2022-09-28T19:49:22.529Z,99849.91
2022-09-28T19:52:11.640Z,99850.13
2022-09-28T19:54:38.038Z,99849.19
2022-09-28T19:57:08.786Z,99840.41
2022-09-28T19:59:37.235Z,99853.53
2022-09-28T20:02:05.690Z,99854.16
2022-09-28T20:04:32.113Z,99856.13
2022-09-28T20:06:58.701Z,99854.31
2022-09-28T20:09:25.102Z,99860.59
2022-09-28T20:11:51.903Z,99859.69
2022-09-28T20:14:18.659Z,99861.41
2022-09-28T20:16:48.519Z,99859.50
2022-09-28T20:19:15.439Z,99859.59
2022-09-28T20:21:41.849Z,99865.66
2022-09-28T20:24:11.605Z,99865.78
2022-09-28T20:26:38.131Z,99857.84
2022-09-28T20:29:05.528Z,99871.72
2022-09-28T20:31:32.134Z,99873.75
2022-09-28T20:33:58.538Z,99869.72
2022-09-28T20:36:25.934Z,99873.75
2022-09-28T20:38:54.477Z,99866.91
2022-09-28T20:41:23.105Z,99877.19
2022-09-28T20:43:56.357Z,99869.06
2022-09-28T20:46:23.502Z,99878.53
2022-09-28T20:48:51.273Z,99880.66
2022-09-28T20:51:19.749Z,99876.28
2022-09-28T20:53:51.678Z,99871.19
2022-09-28T20:56:38.184Z,99880.25
2022-09-28T20:59:07.374Z,99879.06
2022-09-28T21:01:33.860Z,99877.56
2022-09-28T21:04:02.108Z,99883.34
2022-09-28T21:06:31.322Z,99883.16
2022-09-28T21:08:58.241Z,99883.72
2022-09-28T21:11:26.869Z,99886.41
2022-09-28T21:14:00.357Z,99878.69
2022-09-28T21:16:29.088Z,99893.34
2022-09-28T21:18:55.988Z,99891.53
2022-09-28T21:21:23.695Z,99885.97
2022-09-28T21:23:54.293Z,99887.81
2022-09-28T21:26:26.609Z,99891.22
2022-09-28T21:29:06.832Z,99897.41
2022-09-28T21:31:47.719Z,99895.44
2022-09-28T21:34:19.348Z,99894.91
2022-09-28T21:36:47.101Z,99895.28
2022-09-28T21:39:17.893Z,99902.03
2022-09-28T21:41:44.481Z,99900.13
2022-09-28T21:44:11.090Z,99902.50
2022-09-28T21:46:38.563Z,99901.84
2022-09-28T21:49:07.413Z,99897.44
2022-09-28T21:51:34.677Z,99899.88
2022-09-28T21:54:01.063Z,99905.25
2022-09-28T21:56:27.400Z,99903.44
2022-09-28T21:58:53.770Z,99910.75
2022-09-28T22:01:23.402Z,99903.72
2022-09-28T22:03:52.504Z,99907.34
2022-09-28T22:06:20.494Z,99909.25
2022-09-28T22:08:47.893Z,99915.25
2022-09-28T22:11:20.561Z,99905.72
2022-09-28T22:13:49.222Z,99905.78
2022-09-28T22:16:18.043Z,99909.50
2022-09-28T22:18:45.357Z,99916.50
2022-09-28T22:21:19.289Z,99904.97
2022-09-28T22:23:46.115Z,99910.06
2022-09-28T22:26:17.772Z,99912.75
2022-09-28T22:28:49.457Z,99913.66
2022-09-28T22:31:17.189Z,99910.13
2022-09-28T22:33:43.848Z,99906.19
2022-09-28T22:36:10.917Z,99911.31
2022-09-28T22:38:37.649Z,99908.00
2022-09-28T22:41:04.150Z,99907.78
2022-09-28T22:43:30.993Z,99913.03
2022-09-28T22:46:18.168Z,99916.31
2022-09-28T22:48:49.797Z,99915.75
2022-09-28T22:51:16.699Z,99919.25
2022-09-28T22:53:43.114Z,99915.13
2022-09-28T22:56:13.492Z,99921.09
2022-09-28T22:58:42.533Z,99930.72
2022-09-28T23:01:12.876Z,99921.00
2022-09-28T23:03:44.694Z,99921.34
2022-09-28T23:06:13.183Z,99912.88
2022-09-28T23:08:39.589Z,99926.97
2022-09-28T23:11:06.485Z,99931.72
2022-09-28T23:13:33.335Z,99930.00
2022-09-28T23:16:02.299Z,99927.53
2022-09-28T23:18:32.225Z,99934.06
2022-09-28T23:21:01.018Z,99925.69
2022-09-28T23:23:28.437Z,99928.09
2022-09-28T23:25:54.861Z,99924.88
2022-09-28T23:28:24.257Z,99913.13
2022-09-28T23:30:51.151Z,99918.94
2022-09-28T23:33:19.133Z,99919.03
2022-09-28T23:35:45.737Z,99917.16
2022-09-28T23:38:13.636Z,99919.75
2022-09-28T23:40:41.347Z,99925.56
2022-09-28T23:43:08.434Z,99920.34
2022-09-28T23:45:34.834Z,99920.97
2022-09-28T23:48:01.409Z,99927.66
2022-09-28T23:50:28.344Z,99925.81
2022-09-28T23:52:54.684Z,99923.19
2022-09-28T23:55:21.109Z,99922.66
2022-09-28T23:57:47.456Z,99924.13
